Delta Virtual Airport Information Service

Zurich Airport

ICAO: LSZH Country: Switzerland
Latitude: 47.4647 Longitude: 8.54917
Latest Arrival : DAC756 (LFSB-LSZH) Latest Departure : DAC1494 (LSZH-LKPR)


WX CaptureLIVE
Data provided by noaa.gov | Fetched at 00:24:48

METAR : LSZH 080550Z 36005KT 9999 BKN050 M01/M02 Q1018 NOSIG

TAF : LSZH 080525Z 0806/0912 35005KT 9999 FEW070 TX09/0815Z TN00/0806Z TNM03/0906Z PROB30 0806/0807 4000 BR BECMG 0808/0811 04008KT BECMG 0817/0820 VRB02KT CAVOK PROB40 0902/0907 4000 BR NSC BECMG 0907/0910 9999 SCT060


Runway Data for LSZH
Data provided by openaviationdata.com

Runway ID Mag Var Hdg Length Elevation Surface ILS Freq ILS Id ILS Slope
10 1 96° 8553 ft 1416 ft Concrete -- -- --
14 1 138° 10984 ft 1416 ft Concrete 108.3 IKL 3
16 1 155° 12287 ft 1416 ft Concrete 110.5 IZH 3
28 1 276° 8553 ft 1416 ft Concrete 109.75 IZW 3
32 1 318° 10984 ft 1416 ft Concrete -- -- --
34 1 335° 12287 ft 1416 ft Concrete 110.75 IZS 3

Zurich Airport, Switzerland
Use only for reference purposes



Not for navigational purposes.